createdAt,value
2022-11-23T00:01:25.318Z,99215.66
2022-11-23T00:05:28.306Z,99199.59
2022-11-23T00:09:30.312Z,99204.75
2022-11-23T00:13:32.270Z,99205.69
2022-11-23T00:17:33.886Z,99203.16
2022-11-23T00:21:35.460Z,99205.56
2022-11-23T00:25:36.997Z,99202.06
2022-11-23T00:29:38.483Z,99196.63
2022-11-23T00:33:41.128Z,99196.38
2022-11-23T00:37:42.660Z,99203.94
2022-11-23T00:41:45.836Z,99198.53
2022-11-23T00:45:49.393Z,99199.72
2022-11-23T00:49:50.893Z,99229.25
2022-11-23T00:53:53.199Z,99229.94
2022-11-23T00:57:54.827Z,99231.50
2022-11-23T01:01:56.594Z,99229.72
2022-11-23T01:06:07.215Z,99234.75
2022-11-23T01:10:08.895Z,99233.22
2022-11-23T01:14:10.812Z,99236.81
2022-11-23T01:18:14.872Z,99240.44
2022-11-23T01:22:16.543Z,99240.69
2022-11-23T01:26:18.432Z,99244.97
2022-11-23T01:30:20.021Z,99233.13
2022-11-23T01:34:21.584Z,99228.13
2022-11-23T01:38:25.020Z,99236.66
2022-11-23T01:42:43.121Z,99230.00
2022-11-23T01:46:44.671Z,99227.63
2022-11-23T01:50:49.862Z,99224.31
2022-11-23T01:54:54.770Z,99226.16
2022-11-23T01:59:01.964Z,99230.56
2022-11-23T02:03:05.268Z,99233.25
2022-11-23T02:07:07.914Z,99227.41
2022-11-23T02:11:11.648Z,99228.38
2022-11-23T02:15:13.348Z,99230.09
2022-11-23T02:19:40.327Z,99230.19
2022-11-23T02:24:07.446Z,99232.78
2022-11-23T02:28:15.816Z,99229.41
2022-11-23T02:32:23.967Z,99230.25
2022-11-23T02:36:34.125Z,99240.59
2022-11-23T02:40:39.694Z,99231.34
2022-11-23T02:45:01.907Z,99228.03
2022-11-23T02:49:03.874Z,99228.03
2022-11-23T02:53:05.461Z,99224.66
2022-11-23T02:57:07.869Z,99223.06
2022-11-23T03:01:09.587Z,99229.03
2022-11-23T03:05:11.197Z,99227.31
2022-11-23T03:09:12.734Z,99217.06
2022-11-23T03:13:14.571Z,99227.22
2022-11-23T03:17:16.172Z,99228.88
2022-11-23T03:21:19.670Z,99223.78
2022-11-23T03:25:21.362Z,99234.03
2022-11-23T03:29:26.567Z,99238.38
2022-11-23T03:33:29.960Z,99235.03
2022-11-23T03:37:32.072Z,99233.28
2022-11-23T03:41:33.691Z,99230.72
2022-11-23T03:45:35.225Z,99217.19
2022-11-23T03:49:36.828Z,99223.97
2022-11-23T03:53:38.647Z,99229.09
2022-11-23T03:57:40.386Z,99225.69
2022-11-23T04:01:42.135Z,99224.84
2022-11-23T04:05:50.445Z,99232.50
2022-11-23T04:10:24.230Z,99230.00
2022-11-23T04:14:41.487Z,99235.09
2022-11-23T04:18:43.023Z,99221.53
2022-11-23T04:22:45.452Z,99225.00
2022-11-23T04:26:47.159Z,99216.50
2022-11-23T04:30:49.576Z,99214.88
2022-11-23T04:34:53.496Z,99217.44
2022-11-23T04:38:55.409Z,99215.75
2022-11-23T04:43:06.951Z,99215.72
2022-11-23T04:47:11.386Z,99218.28
2022-11-23T04:51:13.946Z,99216.66
2022-11-23T04:55:16.815Z,99217.50
2022-11-23T04:59:29.397Z,99209.00
2022-11-23T05:03:36.055Z,99205.63
2022-11-23T05:07:41.308Z,99215.81
2022-11-23T05:11:44.233Z,99209.94
2022-11-23T05:15:45.896Z,99215.13
2022-11-23T05:19:51.955Z,99211.72
2022-11-23T05:23:54.592Z,99216.88
2022-11-23T05:27:56.506Z,99214.31
2022-11-23T05:31:58.132Z,99218.56
2022-11-23T05:35:59.812Z,99215.09
2022-11-23T05:40:11.567Z,99216.81
2022-11-23T05:44:13.949Z,99213.41
2022-11-23T05:48:15.823Z,99211.72
2022-11-23T05:52:27.151Z,99227.84
2022-11-23T05:56:28.934Z,99225.25
2022-11-23T06:00:39.238Z,99223.53
2022-11-23T06:04:43.026Z,99233.63
2022-11-23T06:08:49.258Z,99235.34
2022-11-23T06:12:52.782Z,99249.88
2022-11-23T06:16:56.749Z,99237.97
2022-11-23T06:21:18.306Z,99241.38
2022-11-23T06:25:21.046Z,99250.69
2022-11-23T06:29:38.467Z,99245.53
2022-11-23T06:33:40.128Z,99244.66
2022-11-23T06:37:41.850Z,99236.81
2022-11-23T06:41:43.388Z,99236.31
2022-11-23T06:45:45.124Z,99233.19
2022-11-23T06:49:49.722Z,99245.59
2022-11-23T06:54:00.043Z,99244.59
2022-11-23T06:58:02.052Z,99256.88
2022-11-23T07:02:04.145Z,99261.56
2022-11-23T07:06:10.676Z,99276.47
2022-11-23T07:10:13.607Z,99276.94
2022-11-23T07:14:24.806Z,99269.00
2022-11-23T07:18:27.085Z,99272.19
2022-11-23T07:22:33.781Z,99266.91
2022-11-23T07:26:35.412Z,99278.63
2022-11-23T07:30:38.832Z,99287.84
2022-11-23T07:34:40.765Z,99290.31
2022-11-23T07:38:43.353Z,99292.84
2022-11-23T07:42:46.779Z,99298.94
2022-11-23T07:46:53.104Z,99292.19
2022-11-23T07:50:55.094Z,99298.09
2022-11-23T07:54:56.845Z,99302.44
2022-11-23T07:58:58.358Z,99303.38
2022-11-23T08:07:21.495Z,99300.25
2022-11-23T08:11:23.079Z,99303.75
2022-11-23T08:15:25.588Z,99300.63
2022-11-23T08:19:27.261Z,99300.06
2022-11-23T08:23:29.147Z,99288.44
2022-11-23T08:27:30.766Z,99290.34
2022-11-23T08:31:32.905Z,99286.13
2022-11-23T08:35:38.470Z,99288.81
2022-11-23T08:39:39.961Z,99289.72
2022-11-23T08:43:41.547Z,99290.84
2022-11-23T08:47:43.082Z,99289.31
2022-11-23T08:51:49.907Z,99292.94
2022-11-23T08:55:52.142Z,99290.59
2022-11-23T08:59:53.770Z,99289.13
2022-11-23T09:03:55.310Z,99288.41
2022-11-23T09:08:00.206Z,99282.44
2022-11-23T09:12:01.725Z,99297.91
2022-11-23T09:16:05.117Z,99298.91
2022-11-23T09:20:07.289Z,99293.91
2022-11-23T09:24:12.495Z,99287.19
2022-11-23T09:28:14.932Z,99294.16
2022-11-23T09:32:16.557Z,99292.72
2022-11-23T09:36:18.062Z,99288.63
2022-11-23T09:40:19.647Z,99283.78
2022-11-23T09:44:53.019Z,99287.38
2022-11-23T09:49:01.175Z,99286.78
2022-11-23T09:53:10.747Z,99288.91
2022-11-23T09:57:18.392Z,99290.06
2022-11-23T10:01:20.383Z,99288.59
2022-11-23T10:05:27.368Z,99284.56
2022-11-23T10:09:45.847Z,99276.13
2022-11-23T10:14:08.207Z,99277.19
2022-11-23T10:18:32.884Z,99280.66
2022-11-23T10:22:59.068Z,99278.16
2022-11-23T10:27:01.510Z,99279.22
2022-11-23T10:31:18.510Z,99266.66
2022-11-23T10:35:27.422Z,99277.16
2022-11-23T10:39:29.005Z,99258.78
2022-11-23T10:44:16.287Z,99263.31
2022-11-23T10:48:35.632Z,99258.31
2022-11-23T10:52:37.227Z,99249.00
2022-11-23T10:56:46.938Z,99241.47
2022-11-23T11:00:59.556Z,99237.47
2022-11-23T11:05:53.487Z,99232.34
2022-11-23T11:10:01.210Z,99232.34
2022-11-23T11:14:24.809Z,99230.81
2022-11-23T11:18:30.088Z,99213.84
2022-11-23T11:22:36.490Z,99218.94
2022-11-23T11:26:49.273Z,99209.66
2022-11-23T11:31:09.425Z,99198.75
2022-11-23T11:35:23.194Z,99197.97
2022-11-23T11:39:32.500Z,99190.47
2022-11-23T11:43:49.120Z,99183.78
2022-11-23T11:48:03.041Z,99180.44
2022-11-23T11:52:10.744Z,99172.06
2022-11-23T11:56:36.270Z,99173.97
2022-11-23T12:00:44.848Z,99170.69
2022-11-23T12:04:50.000Z,99160.59
2022-11-23T12:09:02.498Z,99165.81
2022-11-23T12:13:04.525Z,99157.34
2022-11-23T12:17:33.720Z,99154.03
2022-11-23T12:21:56.965Z,99148.09
2022-11-23T12:26:25.486Z,99149.91
2022-11-23T12:30:36.111Z,99135.47
2022-11-23T12:35:18.713Z,99136.47
2022-11-23T12:39:29.875Z,99136.56
2022-11-23T12:44:00.594Z,99129.88
2022-11-23T12:48:33.015Z,99118.03
2022-11-23T12:52:49.705Z,99117.16
2022-11-23T12:56:56.153Z,99118.13
2022-11-23T13:01:19.077Z,99107.97
2022-11-23T13:05:47.561Z,99105.50
2022-11-23T13:10:01.047Z,99104.72
2022-11-23T13:14:48.209Z,99104.81
2022-11-23T13:19:31.002Z,99097.13
2022-11-23T13:23:38.268Z,99088.63
2022-11-23T13:27:48.791Z,99084.28
2022-11-23T13:32:29.151Z,99073.13
2022-11-23T13:36:56.483Z,99067.97
2022-11-23T13:40:52.167Z,99061.97
2022-11-23T13:45:21.506Z,99056.81
2022-11-23T13:49:42.362Z,99045.69
2022-11-23T13:53:52.659Z,99043.94
2022-11-23T13:58:32.735Z,99033.72
2022-11-23T14:02:34.505Z,99017.41
2022-11-23T14:06:56.829Z,99019.91
2022-11-23T14:10:59.839Z,99001.84
2022-11-23T14:15:20.120Z,99006.06
2022-11-23T14:19:38.904Z,98996.63
2022-11-23T14:23:58.926Z,98984.59
2022-11-23T14:28:25.232Z,98983.63
2022-11-23T14:32:41.932Z,98987.78
2022-11-23T14:36:50.480Z,98991.06
2022-11-23T14:41:07.202Z,98995.25
2022-11-23T14:45:13.807Z,98994.28
2022-11-23T14:49:15.655Z,98992.50
2022-11-23T14:53:17.232Z,98994.13
2022-11-23T14:57:21.905Z,98983.81
2022-11-23T15:01:26.008Z,98989.69
2022-11-23T15:05:31.395Z,98994.72
2022-11-23T15:09:49.941Z,98993.75
2022-11-23T15:13:55.214Z,98995.34
2022-11-23T15:17:59.053Z,99003.09
2022-11-23T15:22:00.709Z,99012.53
2022-11-23T15:26:46.129Z,99008.34
2022-11-23T15:30:43.407Z,99012.69
2022-11-23T15:34:46.240Z,99006.72
2022-11-23T15:38:48.185Z,99018.69
2022-11-23T15:42:51.213Z,99013.63
2022-11-23T15:47:01.291Z,99013.59
2022-11-23T15:51:05.444Z,99003.31
2022-11-23T15:55:12.635Z,99025.47
2022-11-23T16:00:09.886Z,99032.34
2022-11-23T16:04:36.475Z,99041.69
2022-11-23T16:08:40.739Z,99038.38
2022-11-23T16:12:50.106Z,99041.03
2022-11-23T16:17:00.617Z,99053.81
2022-11-23T16:21:04.873Z,99051.25
2022-11-23T16:25:18.057Z,99059.91
2022-11-23T16:29:30.987Z,99063.34
2022-11-23T16:33:33.980Z,99082.13
2022-11-23T16:37:35.552Z,99083.84
2022-11-23T16:41:37.646Z,99103.53
2022-11-23T16:45:41.012Z,99118.94
2022-11-23T16:49:42.586Z,99123.28
2022-11-23T16:58:12.505Z,99141.97
2022-11-23T17:02:15.768Z,99149.66
2022-11-23T17:06:18.330Z,99159.88
2022-11-23T17:10:19.878Z,99173.53
2022-11-23T17:14:28.071Z,99172.63
2022-11-23T17:18:30.974Z,99181.91
2022-11-23T17:22:32.580Z,99184.41
2022-11-23T17:26:37.839Z,99195.38
2022-11-23T17:30:39.490Z,99193.63
2022-11-23T17:34:41.231Z,99203.06
2022-11-23T17:38:46.997Z,99205.66
2022-11-23T17:42:48.604Z,99209.88
2022-11-23T17:46:51.649Z,99212.53
2022-11-23T17:50:53.227Z,99222.75
2022-11-23T17:54:54.845Z,99226.13
2022-11-23T17:58:56.454Z,99227.78
2022-11-23T18:02:58.089Z,99228.56
2022-11-23T18:06:59.631Z,99237.03
2022-11-23T18:11:01.195Z,99252.38
2022-11-23T18:15:02.860Z,99248.94
2022-11-23T18:19:04.642Z,99251.34
2022-11-23T18:23:06.485Z,99253.81
2022-11-23T18:27:08.361Z,99265.56
2022-11-23T18:31:10.123Z,99268.97
2022-11-23T18:35:11.864Z,99277.38
2022-11-23T18:39:13.751Z,99283.25
2022-11-23T18:43:15.287Z,99306.22
2022-11-23T18:47:16.901Z,99305.25
2022-11-23T18:51:18.776Z,99312.94
2022-11-23T18:55:20.312Z,99318.03
2022-11-23T18:59:56.474Z,99319.63
2022-11-23T19:03:46.537Z,99330.75
2022-11-23T19:07:49.051Z,99335.78
2022-11-23T19:11:51.639Z,99344.25
2022-11-23T19:15:53.186Z,99351.19
2022-11-23T19:19:54.760Z,99351.25
2022-11-23T19:23:57.786Z,99355.59
2022-11-23T19:28:00.579Z,99373.34
2022-11-23T19:32:02.085Z,99385.06
2022-11-23T19:36:08.651Z,99392.63
2022-11-23T19:40:12.536Z,99401.13
2022-11-23T19:44:14.241Z,99425.84
2022-11-23T19:48:15.886Z,99430.16
2022-11-23T19:52:17.412Z,99440.44
2022-11-23T19:56:23.360Z,99454.66
2022-11-23T20:00:28.015Z,99462.78
2022-11-23T20:04:30.254Z,99477.91
2022-11-23T20:08:31.926Z,99480.97
2022-11-23T20:12:33.697Z,99483.25
2022-11-23T20:16:35.698Z,99494.16
2022-11-23T20:20:45.142Z,99505.09
2022-11-23T20:24:46.712Z,99519.06
2022-11-23T20:28:53.015Z,99513.63
2022-11-23T20:32:54.714Z,99530.63
2022-11-23T20:36:56.459Z,99533.94
2022-11-23T20:40:58.116Z,99546.50
2022-11-23T20:44:59.786Z,99558.19
2022-11-23T20:49:01.486Z,99575.00
2022-11-23T20:53:03.934Z,99574.81
2022-11-23T20:57:05.526Z,99593.63
2022-11-23T21:01:09.820Z,99598.81
2022-11-23T21:05:12.041Z,99602.22
2022-11-23T21:09:13.628Z,99605.38
2022-11-23T21:13:48.539Z,99607.09
2022-11-23T21:17:51.017Z,99610.53
2022-11-23T21:21:53.241Z,99614.03
2022-11-23T21:25:54.753Z,99626.88
2022-11-23T21:29:56.296Z,99637.09
2022-11-23T21:34:05.233Z,99659.28
2022-11-23T21:38:06.767Z,99671.97
2022-11-23T21:42:08.275Z,99686.41
2022-11-23T21:46:11.841Z,99698.56
2022-11-23T21:50:13.673Z,99697.41
2022-11-23T21:54:15.872Z,99691.81
2022-11-23T21:58:17.835Z,99693.34
2022-11-23T22:02:19.413Z,99699.78
2022-11-23T22:06:21.957Z,99708.09
2022-11-23T22:10:23.462Z,99708.69
2022-11-23T22:14:25.123Z,99715.56
2022-11-23T22:18:27.078Z,99720.09
2022-11-23T22:22:28.762Z,99720.09
2022-11-23T22:26:30.367Z,99716.00
2022-11-23T22:30:31.948Z,99728.03
2022-11-23T22:34:35.241Z,99729.00
2022-11-23T22:38:37.140Z,99741.00
2022-11-23T22:42:38.684Z,99765.66
2022-11-23T22:46:40.290Z,99765.09
2022-11-23T22:50:41.907Z,99767.22
2022-11-23T22:54:43.584Z,99767.50
2022-11-23T22:58:46.395Z,99767.47
2022-11-23T23:02:48.077Z,99773.84
2022-11-23T23:06:50.721Z,99780.50
2022-11-23T23:10:53.089Z,99779.06
2022-11-23T23:14:54.609Z,99783.22
2022-11-23T23:18:57.505Z,99777.00
2022-11-23T23:22:59.042Z,99778.31
2022-11-23T23:27:00.544Z,99789.09
2022-11-23T23:31:07.612Z,99796.56
2022-11-23T23:35:09.321Z,99803.19
2022-11-23T23:39:12.287Z,99804.66
2022-11-23T23:43:13.782Z,99799.50
2022-11-23T23:47:15.302Z,99807.00
2022-11-23T23:51:21.918Z,99804.47
2022-11-23T23:55:23.676Z,99817.03
2022-11-23T23:59:25.813Z,99809.28
